sensor_id;sensor_type;location;lat;lon;timestamp;P1;durP1;ratioP1;P2;durP2;ratioP2
27642;SDS011;15053;48.618;10.024;2022-12-07T00:01:21;34.15;;;15.63;;
27642;SDS011;15053;48.618;10.024;2022-12-07T00:03:51;36.70;;;15.40;;
27642;SDS011;15053;48.618;10.024;2022-12-07T00:06:19;36.25;;;16.45;;
27642;SDS011;15053;48.618;10.024;2022-12-07T00:08:46;55.90;;;19.00;;
27642;SDS011;15053;48.618;10.024;2022-12-07T00:11:15;40.78;;;15.52;;
27642;SDS011;15053;48.618;10.024;2022-12-07T00:13:46;32.55;;;15.38;;
27642;SDS011;15053;48.618;10.024;2022-12-07T00:16:17;42.88;;;15.40;;
27642;SDS011;15053;48.618;10.024;2022-12-07T00:18:45;49.47;;;15.57;;
27642;SDS011;15053;48.618;10.024;2022-12-07T00:21:12;39.33;;;15.15;;
27642;SDS011;15053;48.618;10.024;2022-12-07T00:23:41;31.52;;;14.70;;
27642;SDS011;15053;48.618;10.024;2022-12-07T00:28:46;25.27;;;13.25;;
27642;SDS011;15053;48.618;10.024;2022-12-07T00:31:14;27.52;;;14.23;;
27642;SDS011;15053;48.618;10.024;2022-12-07T00:33:42;27.30;;;14.45;;
27642;SDS011;15053;48.618;10.024;2022-12-07T00:36:11;20.10;;;12.25;;
27642;SDS011;15053;48.618;10.024;2022-12-07T00:38:40;23.92;;;12.60;;
27642;SDS011;15053;48.618;10.024;2022-12-07T00:41:10;21.75;;;12.50;;
27642;SDS011;15053;48.618;10.024;2022-12-07T00:43:42;24.85;;;13.32;;
27642;SDS011;15053;48.618;10.024;2022-12-07T00:46:09;28.27;;;13.98;;
27642;SDS011;15053;48.618;10.024;2022-12-07T00:48:37;26.42;;;13.75;;
27642;SDS011;15053;48.618;10.024;2022-12-07T00:51:04;27.92;;;15.18;;
27642;SDS011;15053;48.618;10.024;2022-12-07T00:53:33;32.20;;;16.70;;
27642;SDS011;15053;48.618;10.024;2022-12-07T00:56:07;31.25;;;15.00;;
27642;SDS011;15053;48.618;10.024;2022-12-07T00:58:35;31.25;;;15.02;;
27642;SDS011;15053;48.618;10.024;2022-12-07T01:01:02;40.25;;;17.10;;
27642;SDS011;15053;48.618;10.024;2022-12-07T01:03:31;28.83;;;14.65;;
27642;SDS011;15053;48.618;10.024;2022-12-07T01:05:57;30.75;;;14.65;;
27642;SDS011;15053;48.618;10.024;2022-12-07T01:08:25;28.45;;;13.65;;
27642;SDS011;15053;48.618;10.024;2022-12-07T01:11:06;32.50;;;14.75;;
27642;SDS011;15053;48.618;10.024;2022-12-07T01:13:34;40.60;;;18.02;;
27642;SDS011;15053;48.618;10.024;2022-12-07T01:16:03;31.00;;;15.20;;
27642;SDS011;15053;48.618;10.024;2022-12-07T01:18:31;34.38;;;15.60;;
27642;SDS011;15053;48.618;10.024;2022-12-07T01:23:34;32.05;;;15.13;;
27642;SDS011;15053;48.618;10.024;2022-12-07T01:26:02;32.58;;;14.50;;
27642;SDS011;15053;48.618;10.024;2022-12-07T01:28:32;32.53;;;15.77;;
27642;SDS011;15053;48.618;10.024;2022-12-07T01:31:05;30.83;;;15.40;;
27642;SDS011;15053;48.618;10.024;2022-12-07T01:33:42;31.98;;;15.45;;
27642;SDS011;15053;48.618;10.024;2022-12-07T01:36:14;31.27;;;14.65;;
27642;SDS011;15053;48.618;10.024;2022-12-07T01:38:47;27.20;;;13.15;;
27642;SDS011;15053;48.618;10.024;2022-12-07T01:41:15;29.60;;;14.55;;
27642;SDS011;15053;48.618;10.024;2022-12-07T01:46:51;25.75;;;13.57;;
27642;SDS011;15053;48.618;10.024;2022-12-07T01:52:16;28.92;;;14.77;;
27642;SDS011;15053;48.618;10.024;2022-12-07T01:54:49;33.65;;;16.85;;
27642;SDS011;15053;48.618;10.024;2022-12-07T01:57:19;32.00;;;15.85;;
27642;SDS011;15053;48.618;10.024;2022-12-07T01:59:47;30.13;;;14.63;;
27642;SDS011;15053;48.618;10.024;2022-12-07T02:02:23;28.00;;;14.20;;
27642;SDS011;15053;48.618;10.024;2022-12-07T02:04:53;28.95;;;15.32;;
27642;SDS011;15053;48.618;10.024;2022-12-07T02:07:21;32.58;;;16.25;;
27642;SDS011;15053;48.618;10.024;2022-12-07T02:09:49;30.77;;;14.98;;
27642;SDS011;15053;48.618;10.024;2022-12-07T02:12:16;31.85;;;16.00;;
27642;SDS011;15053;48.618;10.024;2022-12-07T02:14:43;31.85;;;16.38;;
27642;SDS011;15053;48.618;10.024;2022-12-07T02:31:37;30.33;;;15.90;;
27642;SDS011;15053;48.618;10.024;2022-12-07T02:34:22;30.83;;;16.02;;
27642;SDS011;15053;48.618;10.024;2022-12-07T02:36:54;29.70;;;15.98;;
27642;SDS011;15053;48.618;10.024;2022-12-07T02:39:39;30.80;;;16.25;;
27642;SDS011;15053;48.618;10.024;2022-12-07T02:42:13;31.52;;;16.13;;
27642;SDS011;15053;48.618;10.024;2022-12-07T02:44:45;32.13;;;16.55;;
27642;SDS011;15053;48.618;10.024;2022-12-07T02:47:14;32.85;;;16.02;;
27642;SDS011;15053;48.618;10.024;2022-12-07T02:49:43;28.83;;;14.65;;
27642;SDS011;15053;48.618;10.024;2022-12-07T02:52:10;28.50;;;15.43;;
27642;SDS011;15053;48.618;10.024;2022-12-07T02:54:37;28.42;;;15.60;;
27642;SDS011;15053;48.618;10.024;2022-12-07T03:05:04;24.55;;;14.07;;
27642;SDS011;15053;48.618;10.024;2022-12-07T03:13:34;28.35;;;15.88;;
27642;SDS011;15053;48.618;10.024;2022-12-07T03:18:33;25.60;;;14.70;;
27642;SDS011;15053;48.618;10.024;2022-12-07T03:21:06;26.90;;;14.45;;
27642;SDS011;15053;48.618;10.024;2022-12-07T03:23:37;24.77;;;14.02;;
27642;SDS011;15053;48.618;10.024;2022-12-07T03:26:08;28.75;;;16.30;;
27642;SDS011;15053;48.618;10.024;2022-12-07T03:28:39;27.33;;;14.93;;
27642;SDS011;15053;48.618;10.024;2022-12-07T03:31:11;28.60;;;15.73;;
27642;SDS011;15053;48.618;10.024;2022-12-07T03:36:26;26.75;;;15.50;;
27642;SDS011;15053;48.618;10.024;2022-12-07T03:41:54;30.45;;;15.13;;
27642;SDS011;15053;48.618;10.024;2022-12-07T03:44:22;27.35;;;15.27;;
27642;SDS011;15053;48.618;10.024;2022-12-07T03:49:58;24.75;;;14.35;;
27642;SDS011;15053;48.618;10.024;2022-12-07T03:52:40;29.08;;;16.05;;
27642;SDS011;15053;48.618;10.024;2022-12-07T03:57:49;25.02;;;13.25;;
27642;SDS011;15053;48.618;10.024;2022-12-07T04:00:21;27.40;;;14.57;;
27642;SDS011;15053;48.618;10.024;2022-12-07T04:02:48;25.73;;;14.43;;
27642;SDS011;15053;48.618;10.024;2022-12-07T04:05:18;28.10;;;14.40;;
27642;SDS011;15053;48.618;10.024;2022-12-07T04:07:45;25.58;;;13.95;;
27642;SDS011;15053;48.618;10.024;2022-12-07T04:10:11;23.35;;;12.95;;
27642;SDS011;15053;48.618;10.024;2022-12-07T04:12:38;22.02;;;13.50;;
27642;SDS011;15053;48.618;10.024;2022-12-07T04:15:05;24.48;;;13.90;;
27642;SDS011;15053;48.618;10.024;2022-12-07T04:17:32;23.20;;;13.05;;
27642;SDS011;15053;48.618;10.024;2022-12-07T04:19:58;26.17;;;13.32;;
27642;SDS011;15053;48.618;10.024;2022-12-07T04:22:26;28.70;;;14.98;;
27642;SDS011;15053;48.618;10.024;2022-12-07T04:24:52;23.30;;;13.73;;
27642;SDS011;15053;48.618;10.024;2022-12-07T04:27:19;26.73;;;14.98;;
27642;SDS011;15053;48.618;10.024;2022-12-07T04:29:45;27.40;;;14.85;;
27642;SDS011;15053;48.618;10.024;2022-12-07T04:32:11;26.40;;;14.73;;
27642;SDS011;15053;48.618;10.024;2022-12-07T04:34:38;28.23;;;15.90;;
27642;SDS011;15053;48.618;10.024;2022-12-07T04:37:04;32.53;;;16.42;;
27642;SDS011;15053;48.618;10.024;2022-12-07T04:39:31;32.33;;;15.63;;
27642;SDS011;15053;48.618;10.024;2022-12-07T04:41:59;28.13;;;15.15;;
27642;SDS011;15053;48.618;10.024;2022-12-07T04:44:27;28.60;;;15.32;;
27642;SDS011;15053;48.618;10.024;2022-12-07T04:46:54;28.10;;;15.35;;
27642;SDS011;15053;48.618;10.024;2022-12-07T04:49:21;27.45;;;14.82;;
27642;SDS011;15053;48.618;10.024;2022-12-07T04:51:48;29.05;;;15.20;;
27642;SDS011;15053;48.618;10.024;2022-12-07T04:54:15;28.27;;;15.55;;
27642;SDS011;15053;48.618;10.024;2022-12-07T04:56:43;28.98;;;15.85;;
27642;SDS011;15053;48.618;10.024;2022-12-07T04:59:10;29.45;;;15.40;;
27642;SDS011;15053;48.618;10.024;2022-12-07T05:01:38;32.15;;;16.40;;
27642;SDS011;15053;48.618;10.024;2022-12-07T05:04:04;34.65;;;17.83;;
27642;SDS011;15053;48.618;10.024;2022-12-07T05:06:31;31.63;;;16.92;;
27642;SDS011;15053;48.618;10.024;2022-12-07T05:08:57;32.35;;;17.38;;
27642;SDS011;15053;48.618;10.024;2022-12-07T05:11:24;34.75;;;17.58;;
27642;SDS011;15053;48.618;10.024;2022-12-07T05:14:07;35.50;;;17.35;;
27642;SDS011;15053;48.618;10.024;2022-12-07T05:16:38;28.65;;;16.15;;
27642;SDS011;15053;48.618;10.024;2022-12-07T05:19:07;29.73;;;15.85;;
27642;SDS011;15053;48.618;10.024;2022-12-07T05:21:34;29.40;;;15.85;;
27642;SDS011;15053;48.618;10.024;2022-12-07T05:24:00;27.35;;;14.43;;
27642;SDS011;15053;48.618;10.024;2022-12-07T05:26:27;31.38;;;14.85;;
27642;SDS011;15053;48.618;10.024;2022-12-07T05:28:54;30.23;;;15.48;;
27642;SDS011;15053;48.618;10.024;2022-12-07T05:31:22;27.42;;;14.32;;
27642;SDS011;15053;48.618;10.024;2022-12-07T05:33:51;24.35;;;12.82;;
27642;SDS011;15053;48.618;10.024;2022-12-07T05:36:17;23.52;;;12.40;;
27642;SDS011;15053;48.618;10.024;2022-12-07T05:38:44;24.98;;;13.48;;
27642;SDS011;15053;48.618;10.024;2022-12-07T05:41:12;31.67;;;14.13;;
27642;SDS011;15053;48.618;10.024;2022-12-07T05:44:00;27.55;;;14.60;;
27642;SDS011;15053;48.618;10.024;2022-12-07T05:46:26;27.70;;;14.70;;
27642;SDS011;15053;48.618;10.024;2022-12-07T05:48:53;30.60;;;15.63;;
27642;SDS011;15053;48.618;10.024;2022-12-07T05:51:19;28.75;;;14.65;;
27642;SDS011;15053;48.618;10.024;2022-12-07T05:53:46;29.85;;;15.77;;
27642;SDS011;15053;48.618;10.024;2022-12-07T05:56:12;28.92;;;14.48;;
27642;SDS011;15053;48.618;10.024;2022-12-07T05:58:40;29.27;;;15.00;;
27642;SDS011;15053;48.618;10.024;2022-12-07T06:01:25;28.98;;;14.00;;
27642;SDS011;15053;48.618;10.024;2022-12-07T06:03:51;32.58;;;14.48;;
27642;SDS011;15053;48.618;10.024;2022-12-07T06:06:18;26.70;;;13.63;;
27642;SDS011;15053;48.618;10.024;2022-12-07T06:08:45;26.00;;;13.07;;
27642;SDS011;15053;48.618;10.024;2022-12-07T06:11:11;26.63;;;13.05;;
27642;SDS011;15053;48.618;10.024;2022-12-07T06:13:56;25.50;;;13.15;;
27642;SDS011;15053;48.618;10.024;2022-12-07T06:16:23;24.50;;;12.90;;
27642;SDS011;15053;48.618;10.024;2022-12-07T06:18:49;22.73;;;11.77;;
27642;SDS011;15053;48.618;10.024;2022-12-07T06:21:16;22.92;;;12.40;;
27642;SDS011;15053;48.618;10.024;2022-12-07T06:23:42;22.65;;;11.02;;
27642;SDS011;15053;48.618;10.024;2022-12-07T06:26:08;22.70;;;11.43;;
27642;SDS011;15053;48.618;10.024;2022-12-07T06:28:35;24.08;;;13.40;;
27642;SDS011;15053;48.618;10.024;2022-12-07T06:31:01;21.08;;;12.55;;
27642;SDS011;15053;48.618;10.024;2022-12-07T06:33:29;24.02;;;12.73;;
27642;SDS011;15053;48.618;10.024;2022-12-07T06:35:55;20.05;;;11.40;;
27642;SDS011;15053;48.618;10.024;2022-12-07T06:38:22;21.02;;;11.27;;
27642;SDS011;15053;48.618;10.024;2022-12-07T06:40:48;21.23;;;11.25;;
27642;SDS011;15053;48.618;10.024;2022-12-07T06:43:15;26.98;;;14.13;;
27642;SDS011;15053;48.618;10.024;2022-12-07T06:45:41;21.50;;;12.43;;
27642;SDS011;15053;48.618;10.024;2022-12-07T06:48:08;23.83;;;13.07;;
27642;SDS011;15053;48.618;10.024;2022-12-07T06:50:35;21.38;;;13.13;;
27642;SDS011;15053;48.618;10.024;2022-12-07T06:53:01;18.80;;;10.02;;
27642;SDS011;15053;48.618;10.024;2022-12-07T06:55:27;21.05;;;11.07;;
27642;SDS011;15053;48.618;10.024;2022-12-07T06:57:54;19.67;;;10.00;;
27642;SDS011;15053;48.618;10.024;2022-12-07T07:00:20;20.20;;;10.60;;
27642;SDS011;15053;48.618;10.024;2022-12-07T07:02:48;21.17;;;11.23;;
27642;SDS011;15053;48.618;10.024;2022-12-07T07:05:14;17.55;;;9.13;;
27642;SDS011;15053;48.618;10.024;2022-12-07T07:07:42;18.25;;;10.55;;
27642;SDS011;15053;48.618;10.024;2022-12-07T07:10:28;22.90;;;11.45;;
27642;SDS011;15053;48.618;10.024;2022-12-07T07:12:55;23.48;;;10.85;;
27642;SDS011;15053;48.618;10.024;2022-12-07T07:15:23;14.70;;;8.98;;
27642;SDS011;15053;48.618;10.024;2022-12-07T07:17:49;19.55;;;10.23;;
27642;SDS011;15053;48.618;10.024;2022-12-07T07:20:16;18.20;;;9.93;;
27642;SDS011;15053;48.618;10.024;2022-12-07T07:22:42;17.60;;;9.65;;
27642;SDS011;15053;48.618;10.024;2022-12-07T07:25:09;15.13;;;8.35;;
27642;SDS011;15053;48.618;10.024;2022-12-07T07:27:35;16.25;;;9.32;;
27642;SDS011;15053;48.618;10.024;2022-12-07T07:30:02;20.00;;;9.05;;
27642;SDS011;15053;48.618;10.024;2022-12-07T07:32:30;17.25;;;8.90;;
27642;SDS011;15053;48.618;10.024;2022-12-07T07:34:56;13.05;;;8.50;;
27642;SDS011;15053;48.618;10.024;2022-12-07T07:37:23;15.48;;;8.40;;
27642;SDS011;15053;48.618;10.024;2022-12-07T07:39:49;17.27;;;8.80;;
27642;SDS011;15053;48.618;10.024;2022-12-07T07:42:16;18.83;;;10.02;;
27642;SDS011;15053;48.618;10.024;2022-12-07T07:44:42;14.63;;;9.07;;
27642;SDS011;15053;48.618;10.024;2022-12-07T07:47:09;17.13;;;9.15;;
27642;SDS011;15053;48.618;10.024;2022-12-07T07:49:35;17.40;;;9.15;;
27642;SDS011;15053;48.618;10.024;2022-12-07T07:52:02;17.30;;;9.77;;
27642;SDS011;15053;48.618;10.024;2022-12-07T07:54:29;17.05;;;10.45;;
27642;SDS011;15053;48.618;10.024;2022-12-07T07:56:55;20.17;;;10.85;;
27642;SDS011;15053;48.618;10.024;2022-12-07T07:59:22;17.48;;;9.77;;
27642;SDS011;15053;48.618;10.024;2022-12-07T08:01:48;23.00;;;11.18;;
27642;SDS011;15053;48.618;10.024;2022-12-07T08:04:15;17.60;;;9.73;;
27642;SDS011;15053;48.618;10.024;2022-12-07T08:06:42;16.55;;;9.40;;
27642;SDS011;15053;48.618;10.024;2022-12-07T08:09:08;24.67;;;9.85;;
27642;SDS011;15053;48.618;10.024;2022-12-07T08:11:35;21.63;;;11.05;;
27642;SDS011;15053;48.618;10.024;2022-12-07T08:14:02;23.40;;;11.90;;
27642;SDS011;15053;48.618;10.024;2022-12-07T08:16:29;20.63;;;10.75;;
27642;SDS011;15053;48.618;10.024;2022-12-07T08:18:56;22.77;;;12.30;;
27642;SDS011;15053;48.618;10.024;2022-12-07T08:21:22;19.75;;;10.45;;
27642;SDS011;15053;48.618;10.024;2022-12-07T08:23:49;16.15;;;9.43;;
27642;SDS011;15053;48.618;10.024;2022-12-07T08:26:16;17.83;;;9.48;;
27642;SDS011;15053;48.618;10.024;2022-12-07T08:28:43;17.58;;;10.20;;
27642;SDS011;15053;48.618;10.024;2022-12-07T08:31:12;19.10;;;9.63;;
27642;SDS011;15053;48.618;10.024;2022-12-07T08:33:41;16.85;;;8.88;;
27642;SDS011;15053;48.618;10.024;2022-12-07T08:36:09;15.82;;;8.45;;
27642;SDS011;15053;48.618;10.024;2022-12-07T08:38:38;17.88;;;9.60;;
27642;SDS011;15053;48.618;10.024;2022-12-07T08:41:06;17.70;;;9.63;;
27642;SDS011;15053;48.618;10.024;2022-12-07T08:43:34;18.70;;;10.57;;
27642;SDS011;15053;48.618;10.024;2022-12-07T08:46:21;17.52;;;9.43;;
27642;SDS011;15053;48.618;10.024;2022-12-07T08:49:11;17.30;;;9.45;;
27642;SDS011;15053;48.618;10.024;2022-12-07T08:51:41;17.40;;;10.18;;
27642;SDS011;15053;48.618;10.024;2022-12-07T08:54:12;18.80;;;9.82;;
27642;SDS011;15053;48.618;10.024;2022-12-07T08:56:41;19.75;;;10.00;;
27642;SDS011;15053;48.618;10.024;2022-12-07T08:59:09;19.98;;;10.35;;
27642;SDS011;15053;48.618;10.024;2022-12-07T09:01:36;19.17;;;9.85;;
27642;SDS011;15053;48.618;10.024;2022-12-07T09:04:03;19.67;;;9.93;;
27642;SDS011;15053;48.618;10.024;2022-12-07T09:06:29;18.27;;;9.48;;
27642;SDS011;15053;48.618;10.024;2022-12-07T09:08:57;17.50;;;9.10;;
27642;SDS011;15053;48.618;10.024;2022-12-07T09:11:25;17.33;;;9.55;;
27642;SDS011;15053;48.618;10.024;2022-12-07T09:13:54;16.42;;;8.32;;
27642;SDS011;15053;48.618;10.024;2022-12-07T09:16:21;17.67;;;9.10;;
27642;SDS011;15053;48.618;10.024;2022-12-07T09:18:48;13.50;;;7.80;;
27642;SDS011;15053;48.618;10.024;2022-12-07T09:21:14;13.35;;;8.60;;
27642;SDS011;15053;48.618;10.024;2022-12-07T09:23:41;17.33;;;8.45;;
27642;SDS011;15053;48.618;10.024;2022-12-07T09:26:09;14.20;;;7.95;;
27642;SDS011;15053;48.618;10.024;2022-12-07T09:28:36;12.63;;;7.55;;
27642;SDS011;15053;48.618;10.024;2022-12-07T09:31:04;17.05;;;8.73;;
27642;SDS011;15053;48.618;10.024;2022-12-07T09:33:54;15.68;;;8.82;;
27642;SDS011;15053;48.618;10.024;2022-12-07T09:38:48;16.90;;;8.73;;
27642;SDS011;15053;48.618;10.024;2022-12-07T09:41:15;13.25;;;7.63;;
27642;SDS011;15053;48.618;10.024;2022-12-07T09:43:42;16.67;;;9.18;;
27642;SDS011;15053;48.618;10.024;2022-12-07T09:46:10;15.05;;;7.78;;
27642;SDS011;15053;48.618;10.024;2022-12-07T09:48:42;16.45;;;7.20;;
27642;SDS011;15053;48.618;10.024;2022-12-07T09:51:19;13.88;;;7.22;;
27642;SDS011;15053;48.618;10.024;2022-12-07T09:53:50;12.60;;;6.70;;
27642;SDS011;15053;48.618;10.024;2022-12-07T09:56:19;13.15;;;7.50;;
27642;SDS011;15053;48.618;10.024;2022-12-07T09:58:47;14.07;;;7.40;;
27642;SDS011;15053;48.618;10.024;2022-12-07T10:01:15;14.80;;;7.25;;
27642;SDS011;15053;48.618;10.024;2022-12-07T10:03:50;13.55;;;7.10;;
27642;SDS011;15053;48.618;10.024;2022-12-07T10:06:19;13.13;;;8.20;;
27642;SDS011;15053;48.618;10.024;2022-12-07T10:08:45;12.43;;;7.43;;
27642;SDS011;15053;48.618;10.024;2022-12-07T10:11:12;12.18;;;7.75;;
27642;SDS011;15053;48.618;10.024;2022-12-07T10:13:45;14.90;;;7.63;;
27642;SDS011;15053;48.618;10.024;2022-12-07T10:18:57;10.80;;;6.28;;
27642;SDS011;15053;48.618;10.024;2022-12-07T10:22:04;10.70;;;6.50;;
27642;SDS011;15053;48.618;10.024;2022-12-07T10:27:10;10.80;;;6.45;;
27642;SDS011;15053;48.618;10.024;2022-12-07T10:29:47;11.30;;;6.95;;
27642;SDS011;15053;48.618;10.024;2022-12-07T10:34:43;11.50;;;6.82;;
27642;SDS011;15053;48.618;10.024;2022-12-07T10:37:18;11.35;;;6.10;;
27642;SDS011;15053;48.618;10.024;2022-12-07T10:39:55;10.60;;;5.85;;
27642;SDS011;15053;48.618;10.024;2022-12-07T10:45:06;12.13;;;5.78;;
27642;SDS011;15053;48.618;10.024;2022-12-07T10:47:44;11.75;;;5.90;;
27642;SDS011;15053;48.618;10.024;2022-12-07T10:52:53;10.18;;;5.63;;
27642;SDS011;15053;48.618;10.024;2022-12-07T11:01:23;9.55;;;5.70;;
27642;SDS011;15053;48.618;10.024;2022-12-07T11:04:11;8.52;;;5.40;;
27642;SDS011;15053;48.618;10.024;2022-12-07T11:09:52;7.63;;;4.65;;
27642;SDS011;15053;48.618;10.024;2022-12-07T11:15:55;9.60;;;4.95;;
27642;SDS011;15053;48.618;10.024;2022-12-07T11:18:36;10.55;;;5.43;;
27642;SDS011;15053;48.618;10.024;2022-12-07T11:21:20;10.80;;;5.88;;
27642;SDS011;15053;48.618;10.024;2022-12-07T11:24:10;9.27;;;5.28;;
27642;SDS011;15053;48.618;10.024;2022-12-07T11:26:42;10.38;;;5.38;;
27642;SDS011;15053;48.618;10.024;2022-12-07T11:29:47;8.07;;;4.82;;
27642;SDS011;15053;48.618;10.024;2022-12-07T11:32:34;8.02;;;4.70;;
27642;SDS011;15053;48.618;10.024;2022-12-07T11:35:28;8.30;;;4.68;;
27642;SDS011;15053;48.618;10.024;2022-12-07T11:38:14;7.82;;;4.72;;
27642;SDS011;15053;48.618;10.024;2022-12-07T11:40:47;8.93;;;5.22;;
27642;SDS011;15053;48.618;10.024;2022-12-07T11:43:18;8.25;;;4.68;;
27642;SDS011;15053;48.618;10.024;2022-12-07T11:45:55;7.85;;;5.00;;
27642;SDS011;15053;48.618;10.024;2022-12-07T11:48:37;8.60;;;5.43;;
27642;SDS011;15053;48.618;10.024;2022-12-07T11:51:07;8.60;;;5.47;;
27642;SDS011;15053;48.618;10.024;2022-12-07T11:53:39;10.98;;;6.00;;
27642;SDS011;15053;48.618;10.024;2022-12-07T12:03:59;8.48;;;5.18;;
27642;SDS011;15053;48.618;10.024;2022-12-07T12:06:40;9.35;;;5.43;;
27642;SDS011;15053;48.618;10.024;2022-12-07T12:09:15;9.48;;;5.75;;
27642;SDS011;15053;48.618;10.024;2022-12-07T12:12:21;10.63;;;5.60;;
27642;SDS011;15053;48.618;10.024;2022-12-07T12:15:29;11.20;;;5.65;;
27642;SDS011;15053;48.618;10.024;2022-12-07T12:21:07;9.25;;;5.30;;
27642;SDS011;15053;48.618;10.024;2022-12-07T12:26:14;8.15;;;4.95;;
27642;SDS011;15053;48.618;10.024;2022-12-07T12:28:55;7.82;;;4.88;;
27642;SDS011;15053;48.618;10.024;2022-12-07T12:33:55;8.68;;;4.97;;
27642;SDS011;15053;48.618;10.024;2022-12-07T12:46:56;8.98;;;5.50;;
27642;SDS011;15053;48.618;10.024;2022-12-07T12:51:54;13.95;;;6.28;;
27642;SDS011;15053;48.618;10.024;2022-12-07T12:54:27;17.48;;;7.22;;
27642;SDS011;15053;48.618;10.024;2022-12-07T12:56:59;10.63;;;5.75;;
27642;SDS011;15053;48.618;10.024;2022-12-07T13:02:26;12.15;;;6.03;;
27642;SDS011;15053;48.618;10.024;2022-12-07T13:20:58;8.82;;;4.43;;
27642;SDS011;15053;48.618;10.024;2022-12-07T13:23:31;8.98;;;5.40;;
27642;SDS011;15053;48.618;10.024;2022-12-07T13:26:04;10.32;;;5.63;;
27642;SDS011;15053;48.618;10.024;2022-12-07T13:28:33;8.90;;;5.35;;
27642;SDS011;15053;48.618;10.024;2022-12-07T13:33:39;15.00;;;6.97;;
27642;SDS011;15053;48.618;10.024;2022-12-07T13:36:19;13.30;;;5.25;;
27642;SDS011;15053;48.618;10.024;2022-12-07T13:38:49;10.73;;;5.90;;
27642;SDS011;15053;48.618;10.024;2022-12-07T13:41:26;10.10;;;4.75;;
27642;SDS011;15053;48.618;10.024;2022-12-07T13:43:59;9.50;;;5.85;;
27642;SDS011;15053;48.618;10.024;2022-12-07T13:51:48;9.23;;;5.57;;
27642;SDS011;15053;48.618;10.024;2022-12-07T13:54:15;11.90;;;5.88;;
27642;SDS011;15053;48.618;10.024;2022-12-07T13:56:42;10.85;;;6.55;;
27642;SDS011;15053;48.618;10.024;2022-12-07T13:59:14;11.77;;;6.40;;
27642;SDS011;15053;48.618;10.024;2022-12-07T14:01:44;12.23;;;6.22;;
27642;SDS011;15053;48.618;10.024;2022-12-07T14:07:16;13.85;;;6.78;;
27642;SDS011;15053;48.618;10.024;2022-12-07T14:12:26;13.45;;;7.28;;
27642;SDS011;15053;48.618;10.024;2022-12-07T14:14:55;11.77;;;6.93;;
27642;SDS011;15053;48.618;10.024;2022-12-07T14:17:23;12.35;;;6.90;;
27642;SDS011;15053;48.618;10.024;2022-12-07T14:19:52;12.13;;;6.97;;
27642;SDS011;15053;48.618;10.024;2022-12-07T14:24:50;13.25;;;7.25;;
27642;SDS011;15053;48.618;10.024;2022-12-07T14:27:21;12.82;;;6.93;;
27642;SDS011;15053;48.618;10.024;2022-12-07T14:32:19;10.82;;;6.93;;
27642;SDS011;15053;48.618;10.024;2022-12-07T14:34:53;11.50;;;7.15;;
27642;SDS011;15053;48.618;10.024;2022-12-07T14:37:34;15.75;;;7.85;;
27642;SDS011;15053;48.618;10.024;2022-12-07T14:40:00;14.88;;;8.15;;
27642;SDS011;15053;48.618;10.024;2022-12-07T14:42:28;17.98;;;8.07;;
27642;SDS011;15053;48.618;10.024;2022-12-07T14:44:57;17.48;;;8.52;;
27642;SDS011;15053;48.618;10.024;2022-12-07T14:47:24;19.20;;;9.15;;
27642;SDS011;15053;48.618;10.024;2022-12-07T14:50:13;16.95;;;8.80;;
27642;SDS011;15053;48.618;10.024;2022-12-07T14:52:42;13.35;;;7.22;;
27642;SDS011;15053;48.618;10.024;2022-12-07T14:55:31;14.23;;;7.68;;
27642;SDS011;15053;48.618;10.024;2022-12-07T14:57:58;14.73;;;7.80;;
27642;SDS011;15053;48.618;10.024;2022-12-07T15:00:26;14.18;;;8.70;;
27642;SDS011;15053;48.618;10.024;2022-12-07T15:02:54;15.95;;;7.63;;
27642;SDS011;15053;48.618;10.024;2022-12-07T15:05:21;13.70;;;7.97;;
27642;SDS011;15053;48.618;10.024;2022-12-07T15:07:48;16.80;;;7.97;;
27642;SDS011;15053;48.618;10.024;2022-12-07T15:10:20;17.45;;;8.80;;
27642;SDS011;15053;48.618;10.024;2022-12-07T15:12:50;15.88;;;8.60;;
27642;SDS011;15053;48.618;10.024;2022-12-07T15:15:16;15.93;;;7.80;;
27642;SDS011;15053;48.618;10.024;2022-12-07T15:17:43;16.70;;;9.02;;
27642;SDS011;15053;48.618;10.024;2022-12-07T15:20:13;16.55;;;8.68;;
27642;SDS011;15053;48.618;10.024;2022-12-07T15:22:42;14.02;;;8.98;;
27642;SDS011;15053;48.618;10.024;2022-12-07T15:25:12;15.38;;;8.85;;
27642;SDS011;15053;48.618;10.024;2022-12-07T15:27:39;15.57;;;8.68;;
27642;SDS011;15053;48.618;10.024;2022-12-07T15:30:06;18.63;;;9.68;;
27642;SDS011;15053;48.618;10.024;2022-12-07T15:32:33;18.48;;;9.32;;
27642;SDS011;15053;48.618;10.024;2022-12-07T15:34:59;18.90;;;10.57;;
27642;SDS011;15053;48.618;10.024;2022-12-07T15:37:27;20.92;;;10.70;;
27642;SDS011;15053;48.618;10.024;2022-12-07T15:39:53;20.85;;;11.68;;
27642;SDS011;15053;48.618;10.024;2022-12-07T15:42:20;23.08;;;12.10;;
27642;SDS011;15053;48.618;10.024;2022-12-07T15:44:46;20.75;;;10.05;;
27642;SDS011;15053;48.618;10.024;2022-12-07T15:47:33;18.92;;;9.68;;
27642;SDS011;15053;48.618;10.024;2022-12-07T15:50:22;17.13;;;9.40;;
27642;SDS011;15053;48.618;10.024;2022-12-07T15:52:48;15.90;;;8.70;;
27642;SDS011;15053;48.618;10.024;2022-12-07T15:55:15;20.02;;;9.68;;
27642;SDS011;15053;48.618;10.024;2022-12-07T15:57:41;19.08;;;10.77;;
27642;SDS011;15053;48.618;10.024;2022-12-07T16:00:08;18.00;;;10.60;;
27642;SDS011;15053;48.618;10.024;2022-12-07T16:02:36;20.10;;;10.38;;
27642;SDS011;15053;48.618;10.024;2022-12-07T16:05:05;24.33;;;12.40;;
27642;SDS011;15053;48.618;10.024;2022-12-07T16:07:32;20.45;;;10.27;;
27642;SDS011;15053;48.618;10.024;2022-12-07T16:09:58;16.77;;;9.40;;
27642;SDS011;15053;48.618;10.024;2022-12-07T16:12:25;18.40;;;9.13;;
27642;SDS011;15053;48.618;10.024;2022-12-07T16:14:51;17.63;;;9.38;;
27642;SDS011;15053;48.618;10.024;2022-12-07T16:17:18;15.15;;;9.38;;
27642;SDS011;15053;48.618;10.024;2022-12-07T16:19:44;19.27;;;9.40;;
27642;SDS011;15053;48.618;10.024;2022-12-07T16:22:11;21.00;;;9.65;;
27642;SDS011;15053;48.618;10.024;2022-12-07T16:24:37;17.77;;;10.45;;
27642;SDS011;15053;48.618;10.024;2022-12-07T16:27:03;21.17;;;9.43;;
27642;SDS011;15053;48.618;10.024;2022-12-07T16:29:30;17.00;;;9.07;;
27642;SDS011;15053;48.618;10.024;2022-12-07T16:31:56;16.92;;;9.82;;
27642;SDS011;15053;48.618;10.024;2022-12-07T16:34:23;21.48;;;10.27;;
27642;SDS011;15053;48.618;10.024;2022-12-07T16:36:49;19.70;;;9.77;;
27642;SDS011;15053;48.618;10.024;2022-12-07T16:39:32;25.17;;;11.70;;
27642;SDS011;15053;48.618;10.024;2022-12-07T16:41:59;19.70;;;11.05;;
27642;SDS011;15053;48.618;10.024;2022-12-07T16:44:26;20.05;;;11.15;;
27642;SDS011;15053;48.618;10.024;2022-12-07T16:46:53;22.17;;;11.38;;
27642;SDS011;15053;48.618;10.024;2022-12-07T16:49:19;25.85;;;13.48;;
27642;SDS011;15053;48.618;10.024;2022-12-07T16:51:48;20.98;;;11.77;;
27642;SDS011;15053;48.618;10.024;2022-12-07T16:54:36;21.80;;;10.93;;
27642;SDS011;15053;48.618;10.024;2022-12-07T16:57:02;24.95;;;11.75;;
27642;SDS011;15053;48.618;10.024;2022-12-07T16:59:29;33.47;;;15.75;;
27642;SDS011;15053;48.618;10.024;2022-12-07T17:01:55;40.28;;;18.30;;